East Point, Louisiana
Current Conditions -  °F | °C
As of 12:58 PM on Thursday 30 Oct 2014 (Local Time) from KBAD Reporting Station
Clear Clear  
Wind Chill: 70°   Ceiling: Unl
Heat Index: 70°   Visibility: 10mi
Dew Point: 44°   Wind: 5mph
Humidity: 38%   Direction: NA
Pressure: 30.15"   Gusts: NA
Location:  32.17°N, 93.43°W
Report Text: KBAD 301758Z AUTO VRB04KT 10SM CLR 21/06 A3015 RMK AO2 SLP212 T02130064 10214 20060 57013
Loading
Personal Weather Stations






























Interactive Weather Map
Tropical Storm Tracking
New forecast layout! Learn more

10-Day Weather Forecast

Advertisements
Track Severe Weather on mobile